This is the latest recevied weather packets stored in our database for station/object K1BWE-1. If no packets are shown the sender has not sent any weather packets the latest 10 day(s).
| Time | Temp. | Humidity | Pressure | Rain* | Wind** | Luminosity | Snow |
|---|---|---|---|---|---|---|---|
| 1777955330 | 13.33° C | 90% | 1016.4 hPa | 1.27 mm | - | 0 W/m² | - |
| 1777955028 | 13.33° C | 90% | 1016.2 hPa | 1.27 mm | - | 0 W/m² | - |
| 1777954724 | 13.89° C | 89% | 1016.2 hPa | 3.05 mm | - | 0 W/m² | - |
| 1777954422 | 13.89° C | 87% | 1016.1 hPa | 3.05 mm | - | 0 W/m² | - |
| 1777954119 | 13.89° C | 85% | 1016.1 hPa | 1.27 mm | - | 0 W/m² | - |
| 1777953817 | 14.44° C | 83% | 1016 hPa | 1.27 mm | - | 0 W/m² | - |
| 1777953513 | 14.44° C | 81% | 1016 hPa | 0 mm | - | 0 W/m² | - |
| 1777943813 | 17.78° C | 52% | 1015.4 hPa | 0 mm | - | 5 W/m² | - |
| 1777943206 | 17.78° C | 49% | 1015.3 hPa | 0 mm | - | 12 W/m² | - |
| 1777940479 | 20° C | 43% | 1015.1 hPa | 0 mm | - | 72 W/m² | - |
| 1777937447 | 19.44° C | 47% | 1015.4 hPa | 0 mm | - | 65 W/m² | - |
| 1777933810 | 23.89° C | 24% | 1015.2 hPa | 0 mm | - | 115 W/m² | - |
| 1777930172 | 25° C | 23% | 1014.9 hPa | 0 mm | - | 378 W/m² | - |
| 1777929565 | 25° C | 25% | 1015 hPa | 0 mm | - | 171 W/m² | - |
| 1777928959 | 25° C | 25% | 1015.3 hPa | 0 mm | - | 206 W/m² | - |
| 1777928656 | 25° C | 25% | 1015.2 hPa | 0 mm | - | 183 W/m² | - |
| 1777928353 | 25° C | 24% | 1015.3 hPa | 0 mm | - | 229 W/m² | - |
| 1777927146 | 25.56° C | 22% | 1014.9 hPa | 0 mm | - | 283 W/m² | - |
| 1777926538 | 25.56° C | 22% | 1015.1 hPa | 0 mm | - | 317 W/m² | - |
| 1777925023 | 25.56° C | 25% | 1015.3 hPa | 0 mm | - | 327 W/m² | - |
| 1777924719 | 25° C | 22% | 1015.5 hPa | 0 mm | - | 297 W/m² | - |
| 1777924415 | 25° C | 21% | 1015.3 hPa | 0 mm | - | 221 W/m² | - |
| 1777923202 | 26.11° C | 21% | 1014.8 hPa | 0 mm | - | 375 W/m² | - |
| 1777922900 | 25.56° C | 25% | 1014.8 hPa | 0 mm | - | 390 W/m² | - |
| 1777922598 | 25.56° C | 24% | 1015 hPa | 0 mm | - | 389 W/m² | - |
* Rain latest hour (hover to see other rain measurements)
** Current wind speed in m/s (hover to see current wind gust speed)